Latest Weather Observations for Inner Beacon

IDQ60801

Issued at 7:13 am EST Tuesday 6 December 2022 (issued every 10 minutes, with the page automatically refreshed every 10 minutes)

About weather observations | Map of weather stations | Latest weather observations for QLD | Other Formats
Station Details ID: 040926 Name: INNER RECIPROCAL MARKER Lat: -27.26 Lon: 153.24 Height: 10.0 m
Data from the previous 72 hours. | See also: Recent months at Inner Beacon
Date/Time
EST
Temp
°C
App
Temp
°C
Dew
Point
°C
Rel
Hum
%
Delta-T
°C
Wind Press
QNH
hPa
Press
MSL
hPa
Rain since
9am
mm
Dir  Spd
km/h
Gust
km/h
Spd
kts
Gust
kts
06/07:00am - - - - - WNW 7 9 4 5 - - -
06/06:30am - - - - - NW 9 11 5 6 - - -
06/06:00am - - - - - NW 13 15 7 8 - - -
06/05:30am - - - - - NNW 13 15 7 8 - - -
06/05:00am - - - - - NW 15 17 8 9 - - -
06/04:30am - - - - - NNW 13 15 7 8 - - -
06/04:00am - - - - - NNW 15 20 8 11 - - -
06/03:30am - - - - - NNW 15 17 8 9 - - -
06/03:00am - - - - - N 19 22 10 12 - - -
06/02:30am - - - - - N 15 20 8 11 - - -
06/02:00am - - - - - NNW 20 22 11 12 - - -
06/01:30am - - - - - NNW 17 19 9 10 - - -
06/01:00am - - - - - N 15 17 8 9 - - -
06/12:30am - - - - - N 15 17 8 9 - - -
06/12:00am - - - - - N 13 15 7 8 - - -
 
Date/Time
EST
Temp
°C
App
Temp
°C
Dew
Point
°C
Rel
Hum
%
Delta-T
°C
Wind Press
QNH
hPa
Press
MSL
hPa
Rain since
9am
mm
Dir  Spd
km/h
Gust
km/h
Spd
kts
Gust
kts
05/11:30pm - - - - - N 13 15 7 8 - - -
05/11:00pm - - - - - N 13 15 7 8 - - -
05/10:30pm - - - - - N 7 9 4 5 - - -
05/10:00pm - - - - - NNE 9 11 5 6 - - -
05/09:30pm - - - - - NNE 9 11 5 6 - - -
05/09:00pm - - - - - NE 11 13 6 7 - - -
05/08:30pm - - - - - ENE 11 15 6 8 - - -
05/08:00pm - - - - - ENE 13 15 7 8 - - -
05/07:30pm - - - - - E 11 15 6 8 - - -
05/07:00pm - - - - - E 11 15 6 8 - - -
05/06:30pm - - - - - ENE 13 15 7 8 - - -
05/06:00pm - - - - - E 13 15 7 8 - - -
05/05:30pm - - - - - E 13 15 7 8 - - -
05/05:00pm - - - - - E 15 19 8 10 - - -
05/04:30pm - - - - - E 15 20 8 11 - - -
05/04:00pm - - - - - E 17 19 9 10 - - -
05/03:30pm - - - - - E 15 19 8 10 - - -
05/03:00pm - - - - - E 19 20 10 11 - - -
05/02:30pm - - - - - E 17 20 9 11 - - -
05/02:00pm - - - - - E 17 22 9 12 - - -
05/01:30pm - - - - - E 11 19 6 10 - - -
05/01:00pm - - - - - E 11 13 6 7 - - -
05/12:30pm - - - - - ESE 15 19 8 10 - - -
05/12:00pm - - - - - SE 15 19 8 10 - - -
05/11:30am - - - - - SE 19 20 10 11 - - -
05/11:00am - - - - - SE 19 20 10 11 - - -
05/10:30am - - - - - SSE 19 22 10 12 - - -
05/10:00am - - - - - SSE 20 24 11 13 - - -
05/09:30am - - - - - SSE 22 28 12 15 - - -
05/09:00am - - - - - S 22 28 12 15 - - -
05/08:30am - - - - - S 22 28 12 15 - - -
05/08:00am - - - - - S 22 24 12 13 - - -
05/07:30am - - - - - S 20 24 11 13 - - -
05/07:00am - - - - - S 20 26 11 14 - - -
05/06:30am - - - - - SSW 20 26 11 14 - - -
05/06:00am - - - - - SSW 24 28 13 15 - - -
05/05:30am - - - - - SSW 20 24 11 13 - - -
05/05:00am - - - - - SSW 22 26 12 14 - - -
05/04:30am - - - - - SSW 24 30 13 16 - - -
05/04:00am - - - - - SSW 24 30 13 16 - - -
05/03:30am - - - - - SSW 22 26 12 14 - - -
05/03:00am - - - - - S 30 35 16 19 - - -
05/02:30am - - - - - S 30 33 16 18 - - -
05/02:00am - - - - - S 30 35 16 19 - - -
05/01:30am - - - - - S 32 39 17 21 - - -
05/01:00am - - - - - SSE 35 39 19 21 - - -
05/12:30am - - - - - SSE 33 39 18 21 - - -
05/12:00am - - - - - SSE 35 41 19 22 - - -
 
Date/Time
EST
Temp
°C
App
Temp
°C
Dew
Point
°C
Rel
Hum
%
Delta-T
°C
Wind Press
QNH
hPa
Press
MSL
hPa
Rain since
9am
mm
Dir  Spd
km/h
Gust
km/h
Spd
kts
Gust
kts
04/11:30pm - - - - - SSE 35 43 19 23 - - -
04/11:00pm - - - - - SSE 33 41 18 22 - - -
04/10:30pm - - - - - SSE 33 39 18 21 - - -
04/10:00pm - - - - - SSE 33 39 18 21 - - -
04/09:30pm - - - - - SSE 32 37 17 20 - - -
04/09:00pm - - - - - SSE 33 39 18 21 - - -
04/08:30pm - - - - - SSE 32 37 17 20 - - -
04/08:00pm - - - - - SSE 32 37 17 20 - - -
04/07:30pm - - - - - SSE 33 39 18 21 - - -
04/07:00pm - - - - - SSE 33 39 18 21 - - -
04/06:30pm - - - - - SE 32 39 17 21 - - -
04/06:00pm - - - - - SSE 37 44 20 24 - - -
04/05:30pm - - - - - SE 37 44 20 24 - - -
04/05:00pm - - - - - SE 33 39 18 21 - - -
04/04:30pm - - - - - SE 35 44 19 24 - - -
04/04:00pm - - - - - SE 37 44 20 24 - - -
04/03:30pm - - - - - SE 33 41 18 22 - - -
04/03:00pm - - - - - SE 39 46 21 25 - - -
04/02:30pm - - - - - SE 35 41 19 22 - - -
04/02:00pm - - - - - SSE 37 43 20 23 - - -
04/01:30pm - - - - - SE 35 41 19 22 - - -
04/01:00pm - - - - - SE 33 41 18 22 - - -
04/12:30pm - - - - - SE 39 46 21 25 - - -
04/12:00pm - - - - - SSE 35 41 19 22 - - -
04/11:30am - - - - - SSE 33 39 18 21 - - -
04/11:00am - - - - - SSE 33 37 18 20 - - -
04/10:30am - - - - - SSE 32 39 17 21 - - -
04/10:00am - - - - - SSE 35 41 19 22 - - -
04/09:30am - - - - - SSE 33 39 18 21 - - -
04/09:00am - - - - - S 35 43 19 23 - - -
04/08:30am - - - - - S 32 39 17 21 - - -
04/08:00am - - - - - S 32 37 17 20 - - -
04/07:30am - - - - - S 33 39 18 21 - - -
04/07:00am - - - - - S 32 39 17 21 - - -
04/06:30am - - - - - S 30 37 16 20 - - -
04/06:00am - - - - - S 26 30 14 16 - - -
04/05:30am - - - - - S 24 30 13 16 - - -
04/05:00am - - - - - S 28 32 15 17 - - -
04/04:30am - - - - - S 32 37 17 20 - - -
04/04:00am - - - - - S 32 39 17 21 - - -
04/03:30am - - - - - S 28 33 15 18 - - -
04/03:00am - - - - - S 30 37 16 20 - - -
04/02:30am - - - - - S 32 37 17 20 - - -
04/02:00am - - - - - S 30 35 16 19 - - -
04/01:30am - - - - - S 33 41 18 22 - - -
04/01:00am - - - - - S 32 41 17 22 - - -
04/12:30am - - - - - S 33 41 18 22 - - -
04/12:00am - - - - - S 33 39 18 21 - - -
 
Date/Time
EST
Temp
°C
App
Temp
°C
Dew
Point
°C
Rel
Hum
%
Delta-T
°C
Wind Press
QNH
hPa
Press
MSL
hPa
Rain since
9am
mm
Dir  Spd
km/h
Gust
km/h
Spd
kts
Gust
kts
03/11:30pm - - - - - S 30 35 16 19 - - -
03/11:00pm - - - - - S 37 44 20 24 - - -
03/10:30pm - - - - - S 41 48 22 26 - - -
03/10:00pm - - - - - S 39 48 21 26 - - -
03/09:30pm - - - - - S 30 37 16 20 - - -
03/09:00pm - - - - - S 35 43 19 23 - - -
03/08:30pm - - - - - S 30 37 16 20 - - -
03/08:00pm - - - - - S 39 46 21 25 - - -
03/07:30pm - - - - - S 30 35 16 19 - - -
03/07:00pm - - - - - S 32 41 17 22 - - -
03/06:30pm - - - - - SSE 39 48 21 26 - - -
03/06:00pm - - - - - SSE 43 52 23 28 - - -
03/05:30pm - - - - - SSE 39 46 21 25 - - -
03/05:00pm - - - - - SSE 43 52 23 28 - - -
03/04:30pm - - - - - SSE 39 48 21 26 - - -
03/04:00pm - - - - - SE 39 52 21 28 - - -
03/03:30pm - - - - - SE 39 50 21 27 - - -
03/03:00pm - - - - - SE 37 50 20 27 - - -
03/02:30pm - - - - - SE 41 50 22 27 - - -
03/02:00pm - - - - - SE 39 48 21 26 - - -
03/01:30pm - - - - - SE 33 39 18 21 - - -
03/01:00pm - - - - - SSE 41 52 22 28 - - -
03/12:30pm - - - - - SSE 43 54 23 29 - - -
03/12:00pm - - - - - SE 44 52 24 28 - - -
03/11:30am - - - - - SE 41 48 22 26 - - -
03/11:00am - - - - - SSE 43 56 23 30 - - -
03/10:30am - - - - - SSE 43 50 23 27 - - -
03/10:00am - - - - - SSE 43 52 23 28 - - -
03/09:30am - - - - - SSE 39 48 21 26 - - -
03/09:00am - - - - - SSE 41 50 22 27 - - -
03/08:30am - - - - - SSE 39 46 21 25 - - -
03/08:00am - - - - - S 28 35 15 19 - - -
03/07:30am - - - - - S 39 48 21 26 - - -

Other formats

Comma delimited format used in spreadsheet applications
http://www.bom.gov.au/fwo/IDQ60801/IDQ60801.94590.axf

JavaScript Object Notation format (JSON) in row-major order
http://www.bom.gov.au/fwo/IDQ60801/IDQ60801.94590.json

Data quality

Most of these data are generated automatically and are frequently updated. Quality checks on data are not normally performed. It is possible for incorrect values to appear. Refer to information at About Latest Weather Observations and please check the disclaimer before using these data.